Time;durP1;ratioP1;P1;durP2;ratioP2;P2;SDS_P1;SDS_P2;PMS_P1;PMS_P2;Temp;Humidity;BMP_temperature;BMP_pressure;BME280_temperature;BME280_humidity;BME280_pressure;Samples;Min_cycle;Max_cycle;Signal;HPM_P1;HPM_P2
2022/07/10 00:00:04;;;;;;;9.45;2.40;;;;;;;15.09;64.26;102222.72;5071950;28;20096;-58
2022/07/10 00:02:49;;;;;;;18.65;4.03;;;;;;;15.36;63.02;102222.72;5089430;28;20389;-58
2022/07/10 00:05:16;;;;;;;11.98;2.10;;;;;;;15.15;63.91;102224.78;5089268;28;20048;-58
2022/07/10 00:07:46;;;;;;;14.30;2.30;;;;;;;15.06;63.68;102221.19;5089991;28;20147;-58
2022/07/10 00:10:12;;;;;;;12.32;2.45;;;;;;;15.04;63.91;102219.63;5089607;28;20056;-59
2022/07/10 00:12:39;;;;;;;10.98;2.30;;;;;;;15.05;64.57;102213.31;5089783;28;20059;-58
2022/07/10 00:15:07;;;;;;;16.55;2.45;;;;;;;15.02;64.27;102216.28;5089529;28;20083;-59
2022/07/10 00:17:33;;;;;;;8.60;2.08;;;;;;;15.09;64.66;102215.53;5097149;28;20036;-58
2022/07/10 00:20:00;;;;;;;16.08;2.55;;;;;;;14.95;63.90;102216.00;5109442;28;20048;-58
2022/07/10 00:22:27;;;;;;;11.65;2.35;;;;;;;14.90;64.25;102221.81;5108891;28;20047;-59
2022/07/10 00:24:54;;;;;;;10.32;2.30;;;;;;;14.96;64.16;102218.53;5100951;28;20046;-59
2022/07/10 00:27:20;;;;;;;7.88;2.28;;;;;;;15.00;64.42;102219.09;5089387;28;20056;-59
2022/07/10 00:29:47;;;;;;;11.48;2.25;;;;;;;14.97;64.11;102230.94;5089325;28;20098;-59
2022/07/10 00:32:14;;;;;;;13.82;2.50;;;;;;;14.96;64.35;102223.88;5089254;28;20374;-58
2022/07/10 00:34:41;;;;;;;10.40;2.67;;;;;;;14.94;64.67;102227.72;5088872;28;20383;-59
2022/07/10 00:37:07;;;;;;;12.38;2.17;;;;;;;15.00;64.31;102219.09;5089073;28;20086;-59
2022/07/10 00:39:34;;;;;;;13.55;2.33;;;;;;;15.11;64.35;102215.38;5089011;28;20048;-58
2022/07/10 00:42:13;;;;;;;8.65;2.20;;;;;;;15.00;64.54;102204.91;5089217;28;20052;-59
2022/07/10 00:44:41;;;;;;;14.57;2.78;;;;;;;14.97;64.33;102214.91;5087899;28;20048;-58
2022/07/10 00:47:10;;;;;;;13.00;2.78;;;;;;;14.95;64.40;102214.22;5089049;28;20049;-58
2022/07/10 00:49:38;;;;;;;12.68;2.38;;;;;;;14.94;64.65;102209.00;5088943;28;20077;-60
2022/07/10 00:52:07;;;;;;;14.38;2.53;;;;;;;15.05;64.59;102207.97;5088654;28;20040;-58
2022/07/10 00:54:34;;;;;;;12.95;2.50;;;;;;;14.99;64.53;102212.09;5087685;28;20436;-59
2022/07/10 00:57:05;;;;;;;12.77;2.60;;;;;;;14.96;64.77;102209.69;5088748;28;20044;-59
2022/07/10 00:59:32;;;;;;;11.57;2.60;;;;;;;15.06;65.24;102206.97;5088552;28;20055;-59
2022/07/10 01:02:00;;;;;;;10.68;2.30;;;;;;;15.11;65.24;102204.69;5087621;28;20083;-59
2022/07/10 01:04:26;;;;;;;10.27;2.40;;;;;;;15.05;64.83;102205.31;5088548;28;20068;-59
2022/07/10 01:06:53;;;;;;;16.85;2.75;;;;;;;15.08;64.84;102191.63;5088728;28;20128;-59
2022/07/10 01:09:20;;;;;;;14.45;2.58;;;;;;;15.16;64.91;102195.25;5088818;28;20131;-60
2022/07/10 01:11:47;;;;;;;12.75;3.28;;;;;;;15.15;64.93;102200.72;5088442;28;20067;-59
2022/07/10 01:14:15;;;;;;;14.25;2.70;;;;;;;14.99;65.28;102196.03;5074747;28;20044;-59
2022/07/10 01:16:43;;;;;;;18.73;2.60;;;;;;;15.01;65.19;102187.84;5074688;28;20068;-59
2022/07/10 01:19:09;;;;;;;16.13;2.40;;;;;;;14.92;65.74;102179.75;5075004;28;20496;-58
2022/07/10 01:21:37;;;;;;;14.52;3.20;;;;;;;14.98;65.48;102181.81;5074776;28;20041;-58
2022/07/10 01:24:07;;;;;;;15.48;2.78;;;;;;;15.15;65.13;102185.56;5074648;28;20124;-58
2022/07/10 01:26:34;;;;;;;12.98;2.47;;;;;;;15.12;64.78;102174.31;5074709;28;20859;-58
2022/07/10 01:29:06;;;;;;;13.23;2.28;;;;;;;15.06;64.72;102174.91;5074883;28;20048;-59
2022/07/10 01:31:33;;;;;;;;;;;;;;;15.16;64.42;102165.84;5074952;28;20044;-59
2022/07/10 01:34:01;;;;;;;12.63;2.40;;;;;;;14.97;64.99;102161.44;5074325;28;19924;-59
2022/07/10 01:36:30;;;;;;;12.93;2.50;;;;;;;15.08;65.08;102163.09;5074323;28;20047;-59
2022/07/10 01:38:57;;;;;;;12.43;2.40;;;;;;;15.00;65.01;102160.31;5074370;28;20037;-58
2022/07/10 01:41:25;;;;;;;8.98;2.30;;;;;;;15.12;65.35;102167.13;5074170;28;20041;-58
2022/07/10 01:43:53;;;;;;;13.07;2.40;;;;;;;15.06;65.13;102164.22;5073040;28;20040;-58
2022/07/10 01:46:20;;;;;;;10.07;2.10;;;;;;;15.12;65.15;102167.13;5073196;28;20565;-58
2022/07/10 01:48:48;;;;;;;12.80;2.50;;;;;;;15.05;64.96;102166.06;5074363;28;20053;-58
2022/07/10 01:51:15;;;;;;;9.35;2.30;;;;;;;15.14;65.16;102169.66;5073455;28;20043;-59
2022/07/10 01:53:41;;;;;;;14.70;1.95;;;;;;;15.05;65.06;102160.69;5074330;28;20482;-58
2022/07/10 01:56:10;;;;;;;12.00;2.00;;;;;;;15.12;64.89;102161.78;5073869;28;20138;-59
2022/07/10 01:58:37;;;;;;;12.13;2.58;;;;;;;14.96;65.20;102159.75;5074323;28;20049;-58
2022/07/10 02:01:05;;;;;;;9.98;2.08;;;;;;;14.95;65.27;102160.75;5073626;28;20502;-58
2022/07/10 02:06:19;;;;;;;15.55;2.20;;;;;;;14.91;65.94;102146.00;5073855;28;20128;-59
2022/07/10 02:08:46;;;;;;;14.02;2.28;;;;;;;14.71;65.97;102139.91;5073805;28;20435;-58
2022/07/10 02:11:13;;;;;;;11.82;2.40;;;;;;;14.71;66.26;102147.09;5073673;28;20041;-58
2022/07/10 02:13:40;;;;;;;9.75;2.10;;;;;;;14.59;66.74;102141.94;5073836;28;20131;-58
2022/07/10 02:16:07;;;;;;;14.43;2.22;;;;;;;14.68;66.61;102150.91;5073659;28;20058;-58
2022/07/10 02:18:33;;;;;;;13.70;2.53;;;;;;;14.71;66.88;102145.25;5059401;28;20146;-58
2022/07/10 02:21:00;;;;;;;13.38;2.35;;;;;;;14.71;66.29;102149.75;5053659;28;20041;-58
2022/07/10 02:23:28;;;;;;;8.02;1.90;;;;;;;14.62;67.06;102143.47;5052903;28;20075;-58
2022/07/10 02:25:55;;;;;;;12.50;1.95;;;;;;;14.63;66.92;102139.81;5068546;28;20056;-59
2022/07/10 02:28:22;;;;;;;10.32;2.10;;;;;;;14.70;66.60;102137.41;5073378;28;20102;-59
2022/07/10 02:30:49;;;;;;;15.50;2.75;;;;;;;14.56;67.17;102125.34;5073425;28;20052;-59
2022/07/10 02:33:15;;;;;;;11.10;2.10;;;;;;;14.50;67.30;102125.94;5073148;28;20072;-58
2022/07/10 02:35:42;;;;;;;10.77;2.35;;;;;;;14.52;66.75;102123.94;5073324;28;20048;-58
2022/07/10 02:38:09;;;;;;;13.57;2.58;;;;;;;14.42;67.15;102129.31;5073206;28;20406;-58
2022/07/10 02:40:35;;;;;;;12.75;2.40;;;;;;;14.45;67.31;102128.19;5072949;28;20037;-59
2022/07/10 02:43:02;;;;;;;15.10;2.33;;;;;;;14.46;67.35;102129.84;5073352;28;20135;-62
2022/07/10 02:45:29;;;;;;;9.38;2.10;;;;;;;14.49;66.95;102143.75;5055509;28;20048;-59
2022/07/10 02:47:55;;;;;;;17.52;2.50;;;;;;;14.50;66.77;102133.94;5073132;28;20650;-60
2022/07/10 02:50:23;;;;;;;12.95;2.53;;;;;;;14.52;67.11;102139.97;5072270;28;20124;-59
2022/07/10 02:52:50;;;;;;;14.25;2.30;;;;;;;14.48;66.88;102142.09;5072941;28;20032;-59
2022/07/10 02:55:16;;;;;;;10.10;2.17;;;;;;;14.55;67.07;102143.19;5063435;28;20049;-59
2022/07/10 02:57:43;;;;;;;13.38;2.30;;;;;;;14.61;66.99;102141.78;5073181;28;20055;-58
2022/07/10 03:00:11;;;;;;;9.95;2.33;;;;;;;14.53;66.89;102138.97;5072662;28;20080;-59
2022/07/10 03:02:38;;;;;;;12.00;2.35;;;;;;;14.58;66.82;102140.25;5072663;28;20064;-59
2022/07/10 03:05:05;;;;;;;13.75;2.58;;;;;;;14.55;66.68;102139.66;5071101;28;20044;-59
2022/07/10 03:07:32;;;;;;;11.07;2.15;;;;;;;14.79;65.78;102139.19;5072665;28;20072;-59
2022/07/10 03:09:59;;;;;;;11.05;2.20;;;;;;;14.68;66.17;102142.03;5071492;28;20045;-58
2022/07/10 03:12:25;;;;;;;11.27;2.10;;;;;;;14.68;66.48;102142.91;5072931;28;20106;-58
2022/07/10 03:14:52;;;;;;;8.55;2.20;;;;;;;14.59;66.86;102147.28;5072577;28;20494;-59
2022/07/10 03:17:19;;;;;;;12.13;2.58;;;;;;;14.56;66.93;102144.03;5072480;28;20036;-59
2022/07/10 03:19:45;;;;;;;12.63;2.63;;;;;;;14.72;66.49;102148.78;5072363;28;20048;-59
2022/07/10 03:22:12;;;;;;;10.77;2.60;;;;;;;14.89;66.21;102147.16;5072674;28;20041;-59
2022/07/10 03:24:39;;;;;;;9.85;2.50;;;;;;;14.72;67.00;102146.09;5072732;28;20052;-58
2022/07/10 03:27:05;;;;;;;11.52;2.20;;;;;;;14.70;67.37;102148.94;5072477;28;20053;-59
2022/07/10 03:29:32;;;;;;;14.48;2.80;;;;;;;14.68;67.59;102144.69;5054563;28;20196;-59
2022/07/10 03:31:59;;;;;;;18.67;2.72;;;;;;;14.69;68.00;102149.06;5071979;28;20094;-58
2022/07/10 03:34:26;;;;;;;11.10;2.60;;;;;;;14.71;68.03;102145.25;5072285;28;20044;-58
2022/07/10 03:36:53;;;;;;;10.32;2.35;;;;;;;14.55;68.44;102148.53;5071842;28;20040;-58
2022/07/10 03:39:19;;;;;;;10.80;2.60;;;;;;;14.57;68.50;102148.34;5072175;28;20052;-58
2022/07/10 03:41:46;;;;;;;14.68;2.50;;;;;;;14.57;68.63;102148.34;5072064;28;20040;-58
2022/07/10 03:44:13;;;;;;;12.27;2.58;;;;;;;14.62;68.30;102142.63;5072508;28;20098;-59
2022/07/10 03:46:40;;;;;;;9.60;2.38;;;;;;;14.43;69.10;102144.34;5072115;28;20093;-59
2022/07/10 03:49:06;;;;;;;11.30;2.60;;;;;;;14.46;69.19;102144.06;5072268;28;20044;-59
2022/07/10 03:51:34;;;;;;;11.65;2.70;;;;;;;14.41;69.47;102138.31;5071683;28;20086;-59
2022/07/10 03:54:01;;;;;;;8.73;2.50;;;;;;;14.47;69.67;102147.56;5071078;28;20041;-58
2022/07/10 03:59:14;;;;;;;13.77;2.90;;;;;;;14.56;69.12;102139.50;5071997;28;20127;-58
2022/07/10 04:01:41;;;;;;;14.25;2.58;;;;;;;14.33;69.82;102144.34;5071489;28;20056;-58
2022/07/10 04:04:08;;;;;;;13.18;2.65;;;;;;;14.40;70.11;102136.63;5071663;28;20136;-59
2022/07/10 04:06:37;;;;;;;9.80;2.90;;;;;;;14.37;70.24;102137.75;5070608;28;20045;-58
2022/07/10 04:09:05;;;;;;;12.05;2.65;;;;;;;14.31;70.36;102133.00;5072276;28;20048;-59
2022/07/10 04:11:31;;;;;;;13.40;2.70;;;;;;;14.43;70.37;102125.66;5071913;28;20048;-58
2022/07/10 04:13:59;;;;;;;11.52;2.95;;;;;;;14.20;71.16;102133.16;5072278;28;20037;-58
2022/07/10 04:16:25;;;;;;;9.48;2.90;;;;;;;14.12;71.33;102138.38;5071937;28;20457;-59
2022/07/10 04:18:52;;;;;;;14.75;3.28;;;;;;;14.21;71.69;102138.38;5063574;28;20131;-58
2022/07/10 04:21:19;;;;;;;12.98;3.38;;;;;;;14.34;71.21;102135.38;5051985;28;20053;-59
2022/07/10 04:23:45;;;;;;;8.00;2.90;;;;;;;14.30;71.31;102141.16;5051096;28;20049;-59
2022/07/10 04:26:12;;;;;;;15.27;3.53;;;;;;;14.26;71.79;102142.41;5071193;28;20076;-59
2022/07/10 04:28:39;;;;;;;10.57;2.75;;;;;;;14.38;71.88;102147.44;5071896;28;20044;-59
2022/07/10 04:31:06;;;;;;;13.00;3.25;;;;;;;14.42;71.31;102147.16;5071485;28;20052;-59
2022/07/10 04:33:32;;;;;;;14.98;3.40;;;;;;;14.38;71.23;102150.09;5071463;28;20057;-59
2022/07/10 04:35:59;;;;;;;19.23;3.47;;;;;;;14.38;71.57;102152.78;5071463;28;20072;-58
2022/07/10 04:38:26;;;;;;;16.10;3.38;;;;;;;14.26;71.77;102153.97;5071552;28;20122;-59
2022/07/10 04:40:53;;;;;;;12.60;3.70;;;;;;;14.31;71.69;102157.00;5071736;28;20053;-58
2022/07/10 04:43:20;;;;;;;15.30;3.90;;;;;;;14.30;72.03;102155.34;5071729;28;20043;-58
2022/07/10 04:45:47;;;;;;;19.10;3.60;;;;;;;14.29;71.90;102155.47;5071476;28;20509;-58
2022/07/10 04:48:14;;;;;;;13.73;3.60;;;;;;;14.34;71.83;102147.88;5073214;28;20045;-61
2022/07/10 04:50:40;;;;;;;19.33;3.78;;;;;;;14.35;71.81;102147.75;5074536;28;20510;-59
2022/07/10 04:53:08;;;;;;;10.90;3.30;;;;;;;14.45;71.44;102146.88;5075462;28;20048;-59
2022/07/10 04:55:34;;;;;;;11.15;3.38;;;;;;;14.51;71.17;102140.94;5075428;28;20074;-60
2022/07/10 04:58:01;;;;;;;15.27;4.05;;;;;;;14.60;71.37;102148.09;5074049;28;20502;-59
2022/07/10 05:00:28;;;;;;;16.48;3.50;;;;;;;14.57;71.63;102143.03;5074793;28;20056;-59
2022/07/10 05:02:55;;;;;;;17.48;3.65;;;;;;;14.61;71.09;102152.47;5075382;28;20053;-59
2022/07/10 05:05:21;;;;;;;15.40;4.05;;;;;;;14.66;71.41;102149.34;5074624;28;20504;-59
2022/07/10 05:07:48;;;;;;;14.20;3.35;;;;;;;14.64;70.68;102146.00;5075216;28;20127;-59
2022/07/10 05:10:15;;;;;;;20.35;4.05;;;;;;;14.75;70.95;102146.66;5074967;28;20040;-59
2022/07/10 05:12:41;;;;;;;23.77;3.90;;;;;;;14.84;70.34;102147.56;5073840;28;20044;-60
2022/07/10 05:15:08;;;;;;;19.33;3.28;;;;;;;14.85;69.84;102157.28;5073673;28;20055;-59
2022/07/10 05:17:35;;;;;;;16.27;3.22;;;;;;;14.79;70.26;102152.53;5075044;28;20098;-60
2022/07/10 05:20:02;;;;;;;15.35;3.60;;;;;;;14.96;70.16;102156.25;5074591;28;20048;-59
2022/07/10 05:22:30;;;;;;;15.52;4.05;;;;;;;15.10;69.28;102158.44;5073515;28;20114;-59
2022/07/10 05:24:57;;;;;;;14.23;3.90;;;;;;;15.01;70.06;102156.66;5074555;28;20040;-59
2022/07/10 05:27:24;;;;;;;15.57;4.72;;;;;;;14.91;70.26;102162.03;5074471;28;20452;-60
2022/07/10 05:29:51;;;;;;;17.23;4.57;;;;;;;15.08;70.31;102152.41;5074345;28;20495;-60
2022/07/10 05:32:18;;;;;;;15.48;4.18;;;;;;;15.11;69.92;102153.91;5073934;28;20048;-60
2022/07/10 05:34:45;;;;;;;16.55;3.58;;;;;;;15.43;68.47;102147.25;5074578;28;20054;-60
2022/07/10 05:37:12;;;;;;;19.92;4.13;;;;;;;15.42;68.41;102153.59;5074143;28;20048;-59
2022/07/10 05:39:38;;;;;;;14.90;3.92;;;;;;;15.48;68.44;102161.84;5074258;28;20053;-58
2022/07/10 05:42:05;;;;;;;15.05;3.40;;;;;;;15.47;68.62;102159.31;5074383;28;20502;-58
2022/07/10 05:44:32;;;;;;;14.52;3.33;;;;;;;15.57;68.63;102165.41;5074337;28;20045;-58
2022/07/10 05:46:59;;;;;;;15.68;3.50;;;;;;;15.58;67.28;102166.28;5074264;28;20040;-58
2022/07/10 05:49:26;;;;;;;13.77;3.15;;;;;;;15.35;67.35;102170.25;5074014;28;20494;-58
2022/07/10 05:51:53;;;;;;;13.40;3.47;;;;;;;15.49;67.05;102165.34;5073273;28;20422;-59
2022/07/10 05:54:20;;;;;;;11.90;3.10;;;;;;;15.46;67.67;102176.34;5074180;28;20076;-59
2022/07/10 05:56:47;;;;;;;13.65;3.38;;;;;;;15.34;68.68;102168.53;5074074;28;20109;-59
2022/07/10 05:59:14;;;;;;;14.93;3.72;;;;;;;15.40;69.14;102171.63;5073568;28;20467;-58
2022/07/10 06:01:41;;;;;;;22.42;4.10;;;;;;;15.42;69.44;102177.66;5073490;28;20071;-59
2022/07/10 06:04:07;;;;;;;12.40;3.97;;;;;;;15.60;67.06;102170.47;5073173;28;20497;-59
2022/07/10 06:06:34;;;;;;;18.35;3.78;;;;;;;15.55;67.99;102170.09;5073742;28;20127;-59
2022/07/10 06:09:01;;;;;;;14.82;3.67;;;;;;;15.47;67.90;102162.81;5073661;28;20682;-58
2022/07/10 06:11:27;;;;;;;19.92;3.95;;;;;;;15.44;67.74;102168.47;5073671;28;20485;-59
2022/07/10 06:13:54;;;;;;;16.30;3.60;;;;;;;15.31;67.89;102166.16;5072347;28;20469;-59
2022/07/10 06:16:21;;;;;;;12.98;3.58;;;;;;;15.45;68.27;102161.31;5073716;28;20075;-58
2022/07/10 06:18:47;;;;;;;15.65;4.03;;;;;;;15.41;68.54;102159.91;5071364;28;20076;-59
2022/07/10 06:21:14;;;;;;;14.35;3.67;;;;;;;15.53;68.46;102162.25;5054661;28;20094;-58
2022/07/10 06:23:41;;;;;;;14.45;3.50;;;;;;;15.58;68.05;102160.94;5053601;28;20391;-58
2022/07/10 06:26:08;;;;;;;14.88;3.53;;;;;;;15.52;68.50;102168.56;5072265;28;20083;-58
2022/07/10 06:28:35;;;;;;;11.35;3.15;;;;;;;15.70;67.12;102165.91;5073563;28;20049;-58
2022/07/10 06:31:02;;;;;;;14.05;3.15;;;;;;;15.59;67.94;102167.94;5072768;28;20047;-59
2022/07/10 06:33:29;;;;;;;16.35;3.72;;;;;;;15.53;68.01;102170.25;5073212;28;20032;-58
2022/07/10 06:35:55;;;;;;;20.25;3.17;;;;;;;15.55;67.96;102173.63;5073243;28;20072;-58
2022/07/10 06:38:22;;;;;;;18.80;3.15;;;;;;;15.47;67.72;102173.53;5072199;28;20131;-58
2022/07/10 06:40:49;;;;;;;14.43;3.10;;;;;;;15.49;67.88;102179.56;5073055;28;20431;-59
2022/07/10 06:43:16;;;;;;;12.70;2.85;;;;;;;15.58;67.84;102169.78;5073147;28;20055;-58
2022/07/10 06:45:43;;;;;;;11.27;2.60;;;;;;;15.65;67.43;102172.72;5073253;28;20087;-59
2022/07/10 06:48:10;;;;;;;14.48;2.78;;;;;;;15.58;67.39;102174.31;5073034;28;20494;-58
2022/07/10 06:50:37;;;;;;;14.93;2.72;;;;;;;15.74;66.87;102171.81;5072242;28;20722;-58
2022/07/10 06:53:05;;;;;;;15.70;3.10;;;;;;;15.66;66.56;102166.34;5073079;28;20090;-58
2022/07/10 06:55:34;;;;;;;13.00;3.10;;;;;;;15.46;66.33;102171.00;5072951;28;20056;-58
2022/07/10 06:58:02;;;;;;;18.85;3.15;;;;;;;15.55;66.68;102172.75;5073028;28;20131;-58
2022/07/10 07:00:28;;;;;;;11.93;2.58;;;;;;;15.66;67.26;102177.91;5072251;28;20110;-58
2022/07/10 07:02:55;;;;;;;15.60;3.33;;;;;;;15.59;66.87;102184.00;5072915;28;20076;-58
2022/07/10 07:05:22;;;;;;;14.63;2.90;;;;;;;15.57;66.99;102178.78;5071947;28;20055;-59
2022/07/10 07:07:49;;;;;;;13.18;3.00;;;;;;;15.61;66.45;102176.66;5072886;28;20059;-59
2022/07/10 07:10:15;;;;;;;18.38;3.00;;;;;;;15.73;65.91;102178.97;5063988;28;20076;-59
2022/07/10 07:12:43;;;;;;;14.90;2.70;;;;;;;15.75;66.11;102184.19;5072685;28;20198;-59
2022/07/10 07:15:09;;;;;;;17.15;2.90;;;;;;;15.82;65.37;102181.75;5072146;28;20076;-59
2022/07/10 07:17:56;;;;;;;15.88;2.85;;;;;;;15.85;64.95;102179.59;5072439;28;20064;-59
2022/07/10 07:23:12;;;;;;;12.90;2.38;;;;;;;16.05;64.90;102182.13;5072322;28;20064;-59
2022/07/10 07:25:41;;;;;;;14.77;3.00;;;;;;;16.00;64.50;102177.22;5072384;28;20130;-59
2022/07/10 07:28:10;;;;;;;13.32;2.80;;;;;;;16.10;63.28;102177.97;5072668;28;20122;-59
2022/07/10 07:30:36;;;;;;;19.35;3.38;;;;;;;16.25;62.80;102183.59;5072485;28;20075;-60
2022/07/10 07:33:03;;;;;;;17.45;3.00;;;;;;;15.93;63.91;102189.53;5072206;28;20045;-65
2022/07/10 07:35:30;;;;;;;15.45;2.97;;;;;;;15.98;63.93;102194.44;5071898;28;20052;-60
2022/07/10 07:37:57;;;;;;;17.27;3.05;;;;;;;15.81;63.65;102191.63;5072400;28;20104;-59
2022/07/10 07:40:25;;;;;;;12.10;2.83;;;;;;;15.71;64.11;102191.63;5070459;28;20079;-62
2022/07/10 07:42:53;;;;;;;17.10;3.15;;;;;;;15.74;63.86;102188.69;5072259;28;20075;-59
2022/07/10 07:45:20;;;;;;;17.38;3.20;;;;;;;15.63;64.39;102190.75;5071899;28;20567;-59
2022/07/10 07:47:50;;;;;;;12.98;3.00;;;;;;;15.76;64.85;102195.75;5072354;28;20045;-59
2022/07/10 07:50:19;;;;;;;11.10;2.60;;;;;;;15.78;65.42;102202.63;5071918;28;20045;-58
2022/07/10 07:52:46;;;;;;;18.67;3.15;;;;;;;15.77;64.76;102195.59;5072003;28;20044;-59
2022/07/10 07:55:15;;;;;;;13.18;2.90;;;;;;;15.62;65.41;102197.06;5072273;28;20076;-59
2022/07/10 07:57:43;;;;;;;13.07;2.88;;;;;;;15.54;66.30;102195.16;5072141;28;20750;-59
2022/07/10 08:00:11;;;;;;;14.25;2.95;;;;;;;15.58;66.61;102193.03;5071907;28;20048;-59
2022/07/10 08:02:38;;;;;;;16.65;3.10;;;;;;;15.78;66.90;102191.91;5071369;28;20078;-58
2022/07/10 08:05:06;;;;;;;12.70;3.45;;;;;;;15.85;66.80;102198.34;5071428;28;20056;-59
2022/07/10 08:07:38;;;;;;;14.80;2.75;;;;;;;15.58;66.87;102198.38;5072006;28;20110;-59
2022/07/10 08:10:08;;;;;;;14.85;2.70;;;;;;;15.53;67.35;102197.00;5071788;28;20416;-59
2022/07/10 08:12:34;;;;;;;12.48;2.80;;;;;;;15.67;67.16;102192.94;5071905;28;20498;-59
2022/07/10 08:15:01;;;;;;;16.52;2.90;;;;;;;15.62;67.37;102192.56;5071753;28;20485;-59
2022/07/10 08:17:28;;;;;;;19.25;3.03;;;;;;;15.74;67.84;102195.91;5071634;28;20044;-59
2022/07/10 08:19:55;;;;;;;14.23;3.40;;;;;;;15.65;67.26;102191.44;5068897;28;20482;-59
2022/07/10 08:22:21;;;;;;;16.40;2.92;;;;;;;15.68;67.87;102191.97;5051991;28;20045;-59
2022/07/10 08:24:48;;;;;;;13.73;3.15;;;;;;;15.84;69.13;102191.28;5061903;28;20053;-59
2022/07/10 08:27:15;;;;;;;14.93;2.80;;;;;;;15.72;69.35;102196.00;5075222;28;20052;-59
2022/07/10 08:29:42;;;;;;;14.55;3.10;;;;;;;15.63;69.28;102201.44;5074700;28;20090;-59
2022/07/10 08:32:09;;;;;;;10.88;2.75;;;;;;;15.72;73.05;102189.84;5075126;28;20041;-59
2022/07/10 08:34:36;;;;;;;15.57;3.47;;;;;;;15.99;70.49;102204.13;5075336;28;20398;-59
2022/07/10 08:37:04;;;;;;;16.40;3.08;;;;;;;15.91;72.97;102188.84;5075427;28;20052;-59
2022/07/10 08:39:31;;;;;;;12.07;3.00;;;;;;;15.56;74.38;102195.84;5075503;28;20049;-59
2022/07/10 08:41:59;;;;;;;13.35;2.90;;;;;;;15.47;75.29;102188.75;5075621;28;20493;-59
2022/07/10 08:44:28;;;;;;;18.17;3.00;;;;;;;15.58;74.66;102193.88;5075325;28;20044;-59
2022/07/10 08:46:56;;;;;;;13.88;2.83;;;;;;;15.63;73.81;102190.75;5075153;28;20194;-59
2022/07/10 08:49:28;;;;;;;21.13;3.40;;;;;;;15.77;74.49;102189.38;5073997;28;20048;-59
2022/07/10 08:52:23;;;;;;;11.65;2.72;;;;;;;15.62;74.38;102184.53;5074929;28;20060;-59
2022/07/10 08:54:50;;;;;;;11.00;2.60;;;;;;;15.80;73.09;102186.41;5075029;28;20033;-59
2022/07/10 08:57:18;;;;;;;19.15;3.80;;;;;;;15.87;72.31;102179.47;5075354;28;20052;-59
2022/07/10 08:59:46;;;;;;;14.23;3.00;;;;;;;15.85;71.01;102187.63;5074986;28;20433;-59
2022/07/10 09:02:13;;;;;;;15.80;2.90;;;;;;;16.02;70.46;102187.78;5073736;28;20060;-59
2022/07/10 09:04:40;;;;;;;20.33;3.00;;;;;;;15.94;71.07;102191.22;5074712;28;20040;-59
2022/07/10 09:07:07;;;;;;;13.85;3.13;;;;;;;15.98;70.57;102183.72;5074062;28;20454;-59
2022/07/10 09:09:52;;;;;;;10.43;2.65;;;;;;;15.99;70.45;102185.41;5075208;28;20509;-59
2022/07/10 09:12:21;;;;;;;19.50;2.97;;;;;;;15.85;70.88;102184.97;5073722;28;20524;-59
2022/07/10 09:14:48;;;;;;;13.77;2.65;;;;;;;15.90;71.20;102179.16;5073777;28;20062;-59
2022/07/10 09:17:16;;;;;;;17.25;2.90;;;;;;;16.11;70.80;102178.81;5075637;28;20082;-59
2022/07/10 09:19:44;;;;;;;12.82;2.70;;;;;;;16.18;70.61;102171.84;5074547;28;20517;-59
2022/07/10 09:22:12;;;;;;;14.15;3.72;;;;;;;16.27;70.05;102175.41;5074772;28;20094;-59
2022/07/10 09:24:43;;;;;;;17.13;3.40;;;;;;;16.33;69.91;102171.28;5074035;28;20140;-58
2022/07/10 09:27:11;;;;;;;13.98;3.13;;;;;;;16.36;69.40;102171.78;5074594;28;20113;-59
2022/07/10 09:29:47;;;;;;;17.35;3.55;;;;;;;16.50;68.20;102173.91;5072331;28;20076;-59
2022/07/10 09:32:17;;;;;;;12.27;3.00;;;;;;;16.29;69.72;102170.75;5062471;28;20517;-59
2022/07/10 09:34:49;;;;;;;15.68;3.60;;;;;;;16.27;69.41;102167.38;5072883;28;20041;-58
2022/07/10 09:37:31;;;;;;;14.02;3.25;;;;;;;16.28;70.52;102161.88;5074236;28;20517;-58
2022/07/10 09:40:03;;;;;;;16.45;2.90;;;;;;;16.16;69.63;102162.28;5074623;28;20155;-58
2022/07/10 09:42:39;;;;;;;17.55;3.33;;;;;;;16.07;70.36;102164.91;5072852;28;20044;-59
2022/07/10 09:47:56;;;;;;;13.13;3.30;;;;;;;16.25;70.53;102169.38;5110104;27;20907;-58
2022/07/10 09:50:27;;;;;;;20.05;3.42;;;;;;;16.34;70.13;102167.59;5111195;28;20063;-59
2022/07/10 09:52:56;;;;;;;14.80;3.75;;;;;;;16.31;70.58;102166.06;5111119;28;20048;-59
2022/07/10 09:55:26;;;;;;;13.45;3.45;;;;;;;16.46;69.90;102169.00;5109437;28;20550;-59
2022/07/10 09:57:56;;;;;;;13.73;3.00;;;;;;;16.28;72.47;102164.56;5100078;28;20056;-60
2022/07/10 10:00:32;;;;;;;;;;;;;;;16.20;73.56;102172.50;5094477;28;20039;-58
2022/07/10 10:03:03;;;;;;;16.05;3.15;;;;;;;16.30;74.09;102167.09;5109284;28;20312;-59
2022/07/10 10:05:36;;;;;;;15.05;3.40;;;;;;;16.60;73.84;102170.25;5108934;28;20048;-59
2022/07/10 10:08:11;;;;;;;14.35;3.58;;;;;;;16.64;73.94;102169.78;5109356;28;20047;-58
2022/07/10 10:10:45;;;;;;;15.15;3.70;;;;;;;16.75;74.19;102168.66;5109433;28;20489;-58
2022/07/10 10:13:17;;;;;;;14.60;3.83;;;;;;;16.91;72.88;102161.72;5108994;28;20408;-59
2022/07/10 10:15:44;;;;;;;;;;;;;;;16.98;71.65;102160.91;5109724;28;20366;-59
2022/07/10 10:18:11;;;;;;;13.65;4.15;;;;;;;17.07;70.62;102148.38;5109036;28;19974;-58
2022/07/10 10:20:41;;;;;;;12.73;3.70;;;;;;;17.16;70.34;102152.78;5108825;28;20139;-59
2022/07/10 10:23:11;;;;;;;14.55;4.50;;;;;;;16.80;71.91;102147.59;5109716;27;20048;-58
2022/07/10 10:25:39;;;;;;;13.57;4.75;;;;;;;16.79;76.08;102151.28;5108309;28;20040;-59
2022/07/10 10:28:09;;;;;;;15.07;4.00;;;;;;;16.63;77.01;102151.19;5108672;28;20075;-59
2022/07/10 10:30:43;;;;;;;12.50;4.00;;;;;;;16.75;76.41;102147.22;5109324;28;20051;-59
2022/07/10 10:36:06;;;;;;;9.25;3.35;;;;;;;17.02;76.09;102138.16;5109560;27;20383;-58
2022/07/10 10:38:56;;;;;;;12.15;3.20;;;;;;;16.80;75.62;102139.53;5109539;28;20089;-58
2022/07/10 10:41:28;;;;;;;8.82;2.60;;;;;;;16.84;76.57;102132.06;5109424;28;20493;-58
2022/07/10 10:47:05;;;;;;;8.32;2.58;;;;;;;16.99;76.09;102133.13;5109615;27;1274838;-57
2022/07/10 10:49:53;;;;;;;7.53;2.38;;;;;;;16.88;75.16;102141.44;5130388;27;20039;-57
2022/07/10 10:52:21;;;;;;;8.40;2.35;;;;;;;16.88;75.69;102131.59;5109600;28;20052;-59
2022/07/10 10:55:05;;;;;;;8.20;2.10;;;;;;;16.74;73.42;102129.47;5109570;28;20426;-58
2022/07/10 10:57:37;;;;;;;5.70;2.05;;;;;;;16.72;74.58;102125.25;5109668;28;20129;-58
2022/07/10 11:00:07;;;;;;;9.43;2.50;;;;;;;16.57;74.97;102120.53;5109388;28;20397;-58
2022/07/10 11:02:39;;;;;;;8.45;2.47;;;;;;;16.60;74.10;102124.72;5110201;28;20040;-58
2022/07/10 11:08:00;;;;;;;10.68;2.50;;;;;;;17.24;71.90;102119.78;5109745;27;20376;-58
2022/07/10 11:10:32;;;;;;;9.98;2.50;;;;;;;17.52;71.85;102128.38;5109521;28;20047;-58
2022/07/10 11:13:13;;;;;;;9.30;2.80;;;;;;;17.84;71.80;102118.63;5089351;28;20036;-60
2022/07/10 11:15:42;;;;;;;7.60;2.60;;;;;;;18.02;69.73;102119.31;5089507;28;20465;-58
2022/07/10 11:18:28;;;;;;;9.38;2.85;;;;;;;17.93;68.37;102106.91;5089369;28;20127;-58
2022/07/10 11:20:55;;;;;;;10.50;2.65;;;;;;;17.95;68.86;102112.13;5089197;28;20083;-59
2022/07/10 11:24:01;;;;;;;8.68;2.70;;;;;;;17.71;69.82;102119.16;5089139;28;20052;-58
2022/07/10 11:26:51;;;;;;;13.57;2.85;;;;;;;17.48;70.98;102110.09;5109070;28;20667;-58
2022/07/10 11:29:18;;;;;;;10.00;2.70;;;;;;;17.35;71.98;102126.66;5109546;27;20101;-58
2022/07/10 11:32:00;;;;;;;9.75;2.97;;;;;;;17.21;74.42;102126.31;5095255;28;20059;-58
2022/07/10 11:34:36;;;;;;;12.50;3.03;;;;;;;17.06;75.88;102115.38;5109496;28;20051;-58
2022/07/10 11:37:14;;;;;;;11.32;3.22;;;;;;;17.19;77.80;102114.06;5109408;28;20040;-59
2022/07/10 11:39:40;;;;;;;14.23;3.38;;;;;;;16.98;77.58;102107.31;5109428;28;20051;-59
2022/07/10 11:42:09;;;;;;;11.45;3.08;;;;;;;17.11;76.59;102112.19;5109474;28;20043;-58
2022/07/10 11:44:35;;;;;;;11.98;3.03;;;;;;;17.18;78.05;102113.22;5109498;28;20066;-64